createdAt,value
2022-09-07T00:01:33.869Z,2.60
2022-09-07T00:04:40.006Z,2.60
2022-09-07T00:07:48.235Z,2.63
2022-09-07T00:10:57.057Z,2.50
2022-09-07T00:14:07.914Z,2.20
2022-09-07T00:17:13.722Z,2.43
2022-09-07T00:20:20.654Z,2.43
2022-09-07T00:23:26.574Z,2.70
2022-09-07T00:26:35.472Z,2.53
2022-09-07T00:29:44.382Z,2.53
2022-09-07T00:32:51.298Z,2.40
2022-09-07T00:35:57.482Z,2.00
2022-09-07T00:39:04.199Z,2.60
2022-09-07T00:42:11.301Z,2.53
2022-09-07T00:45:22.264Z,2.73
2022-09-07T00:48:33.168Z,2.50
2022-09-07T00:51:45.776Z,2.67
2022-09-07T00:54:57.297Z,2.10
2022-09-07T00:58:04.272Z,2.50
2022-09-07T01:01:13.593Z,2.50
2022-09-07T01:04:20.314Z,2.87
2022-09-07T01:07:27.025Z,2.50
2022-09-07T01:10:34.725Z,2.67
2022-09-07T01:13:42.387Z,2.70
2022-09-07T01:17:03.497Z,2.63
2022-09-07T01:20:42.718Z,2.83
2022-09-07T01:24:37.058Z,2.60
2022-09-07T01:28:13.940Z,2.67
2022-09-07T01:31:28.993Z,2.60
2022-09-07T01:34:35.746Z,2.50
2022-09-07T01:37:48.354Z,2.50
2022-09-07T01:41:04.020Z,2.90
2022-09-07T01:44:18.712Z,2.53
2022-09-07T01:47:30.687Z,2.73
2022-09-07T01:50:45.071Z,2.70
2022-09-07T01:53:56.911Z,3.00
2022-09-07T01:57:08.776Z,2.90
2022-09-07T02:00:23.007Z,2.93
2022-09-07T02:03:36.312Z,3.10
2022-09-07T02:06:49.766Z,2.37
2022-09-07T02:10:00.712Z,3.40
2022-09-07T02:13:13.370Z,3.00
2022-09-07T02:16:27.788Z,3.37
2022-09-07T02:19:39.983Z,3.00
2022-09-07T02:22:50.715Z,3.07
2022-09-07T02:26:03.820Z,3.03
2022-09-07T02:29:11.506Z,3.07
2022-09-07T02:32:20.584Z,2.90
2022-09-07T02:35:27.890Z,2.97
2022-09-07T02:38:34.526Z,2.57
2022-09-07T02:41:43.312Z,2.50
2022-09-07T02:44:50.161Z,2.30
2022-09-07T02:48:16.713Z,2.90
2022-09-07T02:51:33.743Z,3.57
2022-09-07T02:54:56.054Z,2.60
2022-09-07T02:58:16.914Z,3.47
2022-09-07T03:01:38.454Z,3.00
2022-09-07T03:04:53.968Z,2.83
2022-09-07T03:08:08.509Z,3.43
2022-09-07T03:11:16.114Z,3.00
2022-09-07T03:14:24.799Z,3.20
2022-09-07T03:17:31.217Z,3.10
2022-09-07T03:20:40.976Z,3.00
2022-09-07T03:23:51.162Z,3.27
2022-09-07T03:26:58.853Z,3.30
2022-09-07T03:30:06.853Z,3.37
2022-09-07T03:33:16.148Z,2.97
2022-09-07T03:36:25.375Z,3.10
2022-09-07T03:39:32.366Z,3.17
2022-09-07T03:42:38.833Z,3.23
2022-09-07T03:45:46.006Z,3.07
2022-09-07T03:48:54.157Z,3.30
2022-09-07T03:52:04.075Z,3.27
2022-09-07T03:55:11.000Z,3.03
2022-09-07T03:58:18.001Z,3.27
2022-09-07T04:01:26.345Z,3.13
2022-09-07T04:04:33.867Z,3.67
2022-09-07T04:07:42.879Z,3.33
2022-09-07T04:10:49.762Z,3.60
2022-09-07T04:13:55.701Z,3.40
2022-09-07T04:17:03.764Z,3.27
2022-09-07T04:20:11.211Z,3.53
2022-09-07T04:23:21.596Z,3.83
2022-09-07T04:26:31.082Z,3.23
2022-09-07T04:29:38.588Z,3.87
2022-09-07T04:32:44.669Z,3.90
2022-09-07T04:35:51.731Z,3.60
2022-09-07T04:39:03.584Z,3.67
2022-09-07T04:42:11.116Z,4.03
2022-09-07T04:45:17.186Z,4.40
2022-09-07T04:48:24.433Z,4.53
2022-09-07T04:51:32.367Z,4.30
2022-09-07T04:54:42.860Z,4.40
2022-09-07T04:57:52.142Z,4.33
2022-09-07T05:00:59.171Z,4.43
2022-09-07T05:04:08.155Z,3.80
2022-09-07T05:07:15.034Z,4.40
2022-09-07T05:10:24.504Z,4.10
2022-09-07T05:13:33.184Z,4.53
2022-09-07T05:16:39.514Z,4.80
2022-09-07T05:19:47.033Z,4.00
2022-09-07T05:22:59.780Z,4.70
2022-09-07T05:26:13.640Z,4.50
2022-09-07T05:32:48.883Z,4.40
2022-09-07T05:36:00.247Z,4.43
2022-09-07T05:39:10.713Z,4.53
2022-09-07T05:42:19.703Z,4.27
2022-09-07T05:45:26.630Z,4.57
2022-09-07T05:48:33.108Z,5.20
2022-09-07T05:51:40.234Z,4.57
2022-09-07T05:54:46.475Z,4.77
2022-09-07T05:57:56.567Z,4.47
2022-09-07T06:01:04.069Z,5.73
2022-09-07T06:04:11.097Z,5.00
2022-09-07T06:07:22.078Z,5.63
2022-09-07T06:10:46.872Z,5.33
2022-09-07T06:13:56.108Z,5.47
2022-09-07T06:17:03.578Z,5.57
2022-09-07T06:20:10.982Z,7.03
2022-09-07T06:23:18.110Z,7.67
2022-09-07T06:26:24.401Z,8.97
2022-09-07T06:29:34.029Z,8.03
2022-09-07T06:35:58.352Z,6.77
2022-09-07T06:39:04.789Z,6.60
2022-09-07T06:42:11.901Z,5.97
2022-09-07T06:45:25.631Z,5.73
2022-09-07T06:48:33.082Z,6.10
2022-09-07T06:51:39.491Z,5.53
2022-09-07T06:55:02.373Z,5.57
2022-09-07T06:58:08.828Z,5.37
2022-09-07T07:01:20.983Z,5.90
2022-09-07T07:04:27.023Z,5.53
2022-09-07T07:07:34.177Z,6.57
2022-09-07T07:10:42.183Z,6.20
2022-09-07T07:13:49.482Z,6.27
2022-09-07T07:16:58.337Z,5.70
2022-09-07T07:20:07.962Z,5.83
2022-09-07T07:23:15.232Z,6.07
2022-09-07T07:26:27.055Z,6.07
2022-09-07T07:29:33.379Z,6.60
2022-09-07T07:32:44.196Z,5.30
2022-09-07T07:35:50.404Z,5.70
2022-09-07T07:42:12.648Z,5.17
2022-09-07T07:48:51.201Z,4.57
2022-09-07T07:58:52.803Z,5.30
2022-09-07T08:02:04.829Z,4.87
2022-09-07T08:05:17.387Z,5.00
2022-09-07T08:08:25.719Z,5.53
2022-09-07T08:11:35.641Z,5.13
2022-09-07T08:14:42.934Z,5.07
2022-09-07T08:17:51.105Z,5.67
2022-09-07T08:21:04.356Z,5.47
2022-09-07T08:24:12.146Z,5.50
2022-09-07T08:27:22.014Z,5.57
2022-09-07T08:30:29.591Z,4.97
2022-09-07T08:33:35.645Z,5.27
2022-09-07T08:36:45.474Z,5.37
2022-09-07T08:39:51.420Z,5.00
2022-09-07T08:43:10.408Z,4.97
2022-09-07T08:46:25.348Z,4.67
2022-09-07T08:49:44.909Z,4.60
2022-09-07T08:52:58.667Z,5.23
2022-09-07T08:56:10.500Z,4.80
2022-09-07T08:59:24.776Z,5.07
2022-09-07T09:02:36.551Z,5.27
2022-09-07T09:05:51.534Z,4.93
2022-09-07T09:09:20.331Z,5.10
2022-09-07T09:12:37.699Z,4.63
2022-09-07T09:15:54.666Z,4.43
2022-09-07T09:19:16.373Z,4.20
2022-09-07T09:22:26.821Z,4.37
2022-09-07T09:25:39.811Z,4.30
2022-09-07T09:28:46.693Z,4.10
2022-09-07T09:31:53.822Z,4.10
2022-09-07T09:35:06.864Z,4.07
2022-09-07T09:38:35.093Z,4.03
2022-09-07T09:41:45.623Z,4.43
2022-09-07T09:44:51.826Z,3.70
2022-09-07T09:48:01.055Z,4.10
2022-09-07T09:54:43.950Z,4.23
2022-09-07T10:01:28.362Z,4.07
2022-09-07T10:04:37.179Z,3.70
2022-09-07T10:07:55.233Z,4.10
2022-09-07T10:11:03.751Z,3.87
2022-09-07T10:14:21.640Z,3.70
2022-09-07T10:17:32.985Z,13.10
2022-09-07T10:20:41.697Z,4.40
2022-09-07T10:23:48.153Z,4.30
2022-09-07T10:26:55.593Z,3.90
2022-09-07T10:30:07.171Z,3.80
2022-09-07T10:33:22.090Z,4.17
2022-09-07T10:36:39.222Z,4.17
2022-09-07T10:39:51.434Z,4.10
2022-09-07T10:47:01.654Z,4.10
2022-09-07T10:50:29.456Z,4.13
2022-09-07T10:54:30.143Z,3.90
2022-09-07T10:57:32.504Z,4.93
2022-09-07T11:00:50.867Z,3.87
2022-09-07T11:04:27.668Z,3.53
2022-09-07T11:07:55.477Z,3.97
2022-09-07T11:11:08.789Z,3.90
2022-09-07T11:14:19.507Z,4.10
2022-09-07T11:17:29.590Z,3.80
2022-09-07T11:20:42.664Z,3.80
2022-09-07T11:23:55.579Z,3.88
2022-09-07T11:27:11.130Z,4.00
2022-09-07T11:30:23.033Z,3.83
2022-09-07T11:33:36.808Z,3.90
2022-09-07T11:36:52.576Z,4.28
2022-09-07T11:40:07.246Z,4.05
2022-09-07T11:43:23.247Z,3.80
2022-09-07T11:46:37.810Z,4.15
2022-09-07T11:49:50.794Z,3.90
2022-09-07T11:53:07.104Z,3.88
2022-09-07T11:56:18.721Z,3.70
2022-09-07T11:59:37.539Z,4.20
2022-09-07T12:03:10.585Z,3.95
2022-09-07T12:06:55.017Z,4.28
2022-09-07T12:10:30.558Z,4.38
2022-09-07T12:14:11.718Z,4.20
2022-09-07T12:17:39.698Z,3.78
2022-09-07T12:20:47.491Z,4.18
2022-09-07T12:23:54.636Z,4.18
2022-09-07T12:27:06.688Z,4.05
2022-09-07T12:30:55.884Z,3.63
2022-09-07T12:34:43.808Z,3.97
2022-09-07T12:37:50.811Z,4.10
2022-09-07T12:41:03.748Z,3.70
2022-09-07T12:44:19.283Z,4.18
2022-09-07T12:47:33.801Z,3.65
2022-09-07T12:50:46.523Z,4.32
2022-09-07T12:54:08.863Z,3.83
2022-09-07T12:57:32.546Z,3.83
2022-09-07T13:00:59.123Z,3.80
2022-09-07T13:04:43.139Z,4.05
2022-09-07T13:08:18.074Z,3.70
2022-09-07T13:11:37.633Z,3.72
2022-09-07T13:14:44.163Z,4.13
2022-09-07T13:18:00.890Z,3.90
2022-09-07T13:21:36.911Z,3.60
2022-09-07T13:24:55.953Z,3.10
2022-09-07T13:28:09.342Z,3.60
2022-09-07T13:31:31.891Z,3.42
2022-09-07T13:35:06.946Z,4.10
2022-09-07T13:38:17.997Z,3.55
2022-09-07T13:41:27.850Z,3.65
2022-09-07T13:44:37.365Z,3.35
2022-09-07T13:47:53.526Z,3.28
2022-09-07T13:51:10.602Z,3.38
2022-09-07T13:54:27.673Z,3.65
2022-09-07T13:57:42.473Z,3.85
2022-09-07T14:00:58.899Z,4.03
2022-09-07T14:04:09.669Z,3.83
2022-09-07T14:07:22.802Z,3.60
2022-09-07T14:10:30.265Z,3.38
2022-09-07T14:13:36.258Z,4.10
2022-09-07T14:16:44.742Z,3.50
2022-09-07T14:19:52.953Z,3.30
2022-09-07T14:23:03.647Z,3.13
2022-09-07T14:26:18.686Z,3.58
2022-09-07T14:29:27.673Z,2.85
2022-09-07T14:32:33.699Z,3.17
2022-09-07T14:35:42.373Z,3.20
2022-09-07T14:39:08.257Z,4.22
2022-09-07T14:42:16.940Z,3.30
2022-09-07T14:45:34.301Z,3.20
2022-09-07T14:48:42.349Z,3.20
2022-09-07T14:51:49.701Z,3.42
2022-09-07T14:54:59.803Z,3.42
2022-09-07T14:58:27.319Z,3.55
2022-09-07T15:01:37.282Z,3.53
2022-09-07T15:04:43.552Z,3.97
2022-09-07T15:07:51.869Z,3.33
2022-09-07T15:14:36.312Z,3.50
2022-09-07T15:17:43.678Z,3.90
2022-09-07T15:20:50.910Z,3.60
2022-09-07T15:23:58.766Z,3.30
2022-09-07T15:27:21.774Z,3.50
2022-09-07T15:30:27.819Z,3.10
2022-09-07T15:33:34.799Z,3.20
2022-09-07T15:36:42.894Z,3.00
2022-09-07T15:39:49.616Z,3.25
2022-09-07T15:43:00.350Z,3.70
2022-09-07T15:46:09.262Z,3.40
2022-09-07T15:49:15.855Z,3.30
2022-09-07T15:52:22.648Z,3.40
2022-09-07T15:55:28.487Z,3.30
2022-09-07T15:58:38.449Z,3.00
2022-09-07T16:01:52.050Z,3.47
2022-09-07T16:04:59.371Z,2.95
2022-09-07T16:11:35.247Z,3.72
2022-09-07T16:14:44.155Z,3.45
2022-09-07T16:17:53.832Z,3.47
2022-09-07T16:21:00.383Z,3.72
2022-09-07T16:24:09.849Z,3.80
2022-09-07T16:27:16.019Z,3.95
2022-09-07T16:30:26.209Z,3.65
2022-09-07T16:33:36.860Z,4.03
2022-09-07T16:36:44.594Z,3.53
2022-09-07T16:39:51.729Z,3.55
2022-09-07T16:42:58.579Z,4.32
2022-09-07T16:46:11.513Z,4.30
2022-09-07T16:49:19.529Z,4.03
2022-09-07T16:52:26.704Z,4.55
2022-09-07T16:55:34.320Z,4.05
2022-09-07T16:58:42.180Z,3.80
2022-09-07T17:01:51.949Z,3.72
2022-09-07T17:04:58.224Z,4.10
2022-09-07T17:08:07.596Z,4.10
2022-09-07T17:11:16.165Z,4.10
2022-09-07T17:14:23.739Z,4.10
2022-09-07T17:17:33.021Z,4.28
2022-09-07T17:20:40.715Z,3.65
2022-09-07T17:23:54.846Z,4.20
2022-09-07T17:27:04.028Z,3.88
2022-09-07T17:30:11.641Z,4.18
2022-09-07T17:33:21.473Z,4.85
2022-09-07T17:36:28.590Z,4.97
2022-09-07T17:39:35.788Z,3.77
2022-09-07T17:46:10.187Z,5.17
2022-09-07T17:49:19.123Z,5.10
2022-09-07T17:52:28.644Z,5.17
2022-09-07T17:55:35.008Z,5.00
2022-09-07T17:58:43.165Z,4.57
2022-09-07T18:01:49.496Z,4.60
2022-09-07T18:05:00.768Z,5.23
2022-09-07T18:08:09.228Z,4.63
2022-09-07T18:14:44.610Z,5.00
2022-09-07T18:17:51.297Z,5.43
2022-09-07T18:21:00.129Z,5.43
2022-09-07T18:24:11.644Z,4.97
2022-09-07T18:27:21.241Z,5.67
2022-09-07T18:30:29.799Z,5.50
2022-09-07T18:33:35.658Z,5.30
2022-09-07T18:36:45.235Z,5.50
2022-09-07T18:39:52.626Z,5.37
2022-09-07T18:42:59.651Z,5.70
2022-09-07T18:46:11.288Z,5.53
2022-09-07T18:49:18.095Z,5.53
2022-09-07T18:55:53.733Z,6.03
2022-09-07T18:59:00.290Z,6.67
2022-09-07T19:02:12.470Z,8.00
2022-09-07T19:08:50.028Z,8.50
2022-09-07T19:11:56.204Z,8.03
2022-09-07T19:15:04.175Z,8.23
2022-09-07T19:18:11.026Z,8.30
2022-09-07T19:21:19.942Z,8.20
2022-09-07T19:24:28.816Z,6.83
2022-09-07T19:27:36.022Z,6.53
2022-09-07T19:30:42.035Z,5.87
2022-09-07T19:33:48.769Z,6.40
2022-09-07T19:36:55.010Z,6.30
2022-09-07T19:40:07.575Z,6.20
2022-09-07T19:43:13.478Z,6.73
2022-09-07T19:46:24.754Z,6.50
2022-09-07T19:49:31.178Z,7.50
2022-09-07T19:52:38.335Z,7.30
2022-09-07T19:55:47.787Z,7.00
2022-09-07T19:58:54.754Z,7.97
2022-09-07T20:02:00.593Z,8.47
2022-09-07T20:05:09.668Z,7.93
2022-09-07T20:08:15.659Z,8.17
2022-09-07T20:11:26.008Z,8.40
2022-09-07T20:14:31.843Z,7.93
2022-09-07T20:17:38.530Z,7.70
2022-09-07T20:20:44.644Z,7.23
2022-09-07T20:23:52.039Z,6.80
2022-09-07T20:27:03.848Z,7.03
2022-09-07T20:30:11.946Z,7.10
2022-09-07T20:33:18.208Z,7.07
2022-09-07T20:36:25.373Z,6.77
2022-09-07T20:39:34.673Z,6.83
2022-09-07T20:42:48.663Z,6.73
2022-09-07T20:45:59.821Z,7.03
2022-09-07T20:49:11.116Z,6.43
2022-09-07T20:52:17.152Z,6.80
2022-09-07T20:55:24.833Z,6.23
2022-09-07T20:58:34.015Z,6.60
2022-09-07T21:01:41.125Z,6.53
2022-09-07T21:04:46.982Z,6.70
2022-09-07T21:07:54.090Z,6.40
2022-09-07T21:11:00.020Z,6.80
2022-09-07T21:14:15.398Z,6.33
2022-09-07T21:17:21.211Z,6.63
2022-09-07T21:20:27.954Z,6.90
2022-09-07T21:23:35.691Z,6.93
2022-09-07T21:26:42.356Z,6.40
2022-09-07T21:29:51.017Z,6.37
2022-09-07T21:33:02.848Z,7.10
2022-09-07T21:36:11.558Z,6.90
2022-09-07T21:39:19.469Z,6.87
2022-09-07T21:42:25.268Z,6.93
2022-09-07T21:45:35.214Z,6.87
2022-09-07T21:48:41.123Z,7.40
2022-09-07T21:51:47.795Z,7.17
2022-09-07T21:54:53.652Z,6.23
2022-09-07T21:58:01.037Z,7.43
2022-09-07T22:01:17.336Z,6.50
2022-09-07T22:04:24.302Z,6.83
2022-09-07T22:07:30.142Z,6.40
2022-09-07T22:10:37.207Z,6.60
2022-09-07T22:13:44.473Z,7.17
2022-09-07T22:16:53.993Z,6.67
2022-09-07T22:20:00.059Z,7.40
2022-09-07T22:23:09.420Z,7.50
2022-09-07T22:26:16.621Z,6.40
2022-09-07T22:29:23.256Z,7.13
2022-09-07T22:32:31.929Z,6.57
2022-09-07T22:35:38.547Z,7.03
2022-09-07T22:38:44.894Z,6.67
2022-09-07T22:41:51.738Z,7.47
2022-09-07T22:44:57.834Z,6.60
2022-09-07T22:48:07.354Z,7.10
2022-09-07T22:51:14.209Z,6.80
2022-09-07T22:54:20.865Z,6.77
2022-09-07T22:57:26.715Z,7.10
2022-09-07T23:00:33.632Z,7.07
2022-09-07T23:03:42.487Z,6.50
2022-09-07T23:06:49.416Z,7.23
2022-09-07T23:09:55.306Z,8.80
2022-09-07T23:13:03.547Z,9.00
2022-09-07T23:16:10.820Z,9.40
2022-09-07T23:19:22.713Z,9.53
2022-09-07T23:22:28.691Z,10.97
2022-09-07T23:25:38.310Z,12.13
2022-09-07T23:28:44.125Z,11.43
2022-09-07T23:31:51.128Z,10.27
2022-09-07T23:34:59.788Z,8.87
2022-09-07T23:38:09.017Z,8.50
2022-09-07T23:41:15.555Z,7.30
2022-09-07T23:44:22.323Z,8.00
2022-09-07T23:47:28.995Z,7.57
2022-09-07T23:50:39.270Z,7.90
2022-09-07T23:53:45.520Z,7.20
2022-09-07T23:56:52.223Z,7.90
2022-09-07T23:59:58.090Z,7.90
